sensor_id;sensor_type;location;lat;lon;timestamp;P1;durP1;ratioP1;P2;durP2;ratioP2
22070;SDS011;11200;51.488;6.668;2022-10-16T00:00:34;3.40;;;2.00;;
22070;SDS011;11200;51.488;6.668;2022-10-16T00:03:01;2.70;;;2.03;;
22070;SDS011;11200;51.488;6.668;2022-10-16T00:05:27;3.33;;;2.08;;
22070;SDS011;11200;51.488;6.668;2022-10-16T00:07:53;2.03;;;1.83;;
22070;SDS011;11200;51.488;6.668;2022-10-16T00:10:18;2.45;;;2.10;;
22070;SDS011;11200;51.488;6.668;2022-10-16T00:12:44;2.33;;;1.92;;
22070;SDS011;11200;51.488;6.668;2022-10-16T00:15:09;2.10;;;1.90;;
22070;SDS011;11200;51.488;6.668;2022-10-16T00:17:35;2.22;;;1.90;;
22070;SDS011;11200;51.488;6.668;2022-10-16T00:20:01;2.17;;;1.98;;
22070;SDS011;11200;51.488;6.668;2022-10-16T00:22:27;2.30;;;1.90;;
22070;SDS011;11200;51.488;6.668;2022-10-16T00:24:53;2.53;;;1.83;;
22070;SDS011;11200;51.488;6.668;2022-10-16T00:27:19;2.53;;;1.77;;
22070;SDS011;11200;51.488;6.668;2022-10-16T00:29:44;2.30;;;1.80;;
22070;SDS011;11200;51.488;6.668;2022-10-16T00:32:14;2.20;;;1.88;;
22070;SDS011;11200;51.488;6.668;2022-10-16T00:34:39;2.45;;;1.80;;
22070;SDS011;11200;51.488;6.668;2022-10-16T00:37:05;2.03;;;1.83;;
22070;SDS011;11200;51.488;6.668;2022-10-16T00:39:30;3.30;;;2.08;;
22070;SDS011;11200;51.488;6.668;2022-10-16T00:41:56;2.88;;;1.60;;
22070;SDS011;11200;51.488;6.668;2022-10-16T00:44:44;2.10;;;1.90;;
22070;SDS011;11200;51.488;6.668;2022-10-16T00:47:11;2.33;;;1.98;;
22070;SDS011;11200;51.488;6.668;2022-10-16T00:49:42;2.13;;;1.80;;
22070;SDS011;11200;51.488;6.668;2022-10-16T00:52:08;3.05;;;1.80;;
22070;SDS011;11200;51.488;6.668;2022-10-16T00:54:35;3.10;;;2.15;;
22070;SDS011;11200;51.488;6.668;2022-10-16T00:57:01;2.25;;;1.85;;
22070;SDS011;11200;51.488;6.668;2022-10-16T00:59:32;3.38;;;1.80;;
22070;SDS011;11200;51.488;6.668;2022-10-16T01:01:59;2.28;;;1.70;;
22070;SDS011;11200;51.488;6.668;2022-10-16T01:04:26;3.47;;;2.00;;
22070;SDS011;11200;51.488;6.668;2022-10-16T01:09:40;2.80;;;1.70;;
22070;SDS011;11200;51.488;6.668;2022-10-16T01:15:01;2.10;;;1.90;;
22070;SDS011;11200;51.488;6.668;2022-10-16T01:17:38;2.30;;;1.85;;
22070;SDS011;11200;51.488;6.668;2022-10-16T01:20:31;4.18;;;1.60;;
22070;SDS011;11200;51.488;6.668;2022-10-16T01:26:05;2.90;;;1.85;;
22070;SDS011;11200;51.488;6.668;2022-10-16T01:28:41;3.10;;;1.65;;
22070;SDS011;11200;51.488;6.668;2022-10-16T01:31:16;2.17;;;1.65;;
22070;SDS011;11200;51.488;6.668;2022-10-16T01:33:51;2.05;;;1.70;;
22070;SDS011;11200;51.488;6.668;2022-10-16T01:36:43;3.35;;;1.83;;
22070;SDS011;11200;51.488;6.668;2022-10-16T01:39:13;2.85;;;1.90;;
22070;SDS011;11200;51.488;6.668;2022-10-16T01:41:42;1.88;;;1.70;;
22070;SDS011;11200;51.488;6.668;2022-10-16T01:44:19;2.35;;;1.83;;
22070;SDS011;11200;51.488;6.668;2022-10-16T01:46:50;3.60;;;2.05;;
22070;SDS011;11200;51.488;6.668;2022-10-16T01:49:17;2.15;;;1.92;;
22070;SDS011;11200;51.488;6.668;2022-10-16T01:51:45;2.35;;;1.90;;
22070;SDS011;11200;51.488;6.668;2022-10-16T01:54:15;1.80;;;1.58;;
22070;SDS011;11200;51.488;6.668;2022-10-16T01:56:44;2.33;;;1.85;;
22070;SDS011;11200;51.488;6.668;2022-10-16T01:59:13;2.53;;;1.77;;
22070;SDS011;11200;51.488;6.668;2022-10-16T02:01:42;2.88;;;1.50;;
22070;SDS011;11200;51.488;6.668;2022-10-16T02:04:17;1.77;;;1.60;;
22070;SDS011;11200;51.488;6.668;2022-10-16T02:07:04;3.40;;;1.92;;
22070;SDS011;11200;51.488;6.668;2022-10-16T02:09:34;2.05;;;1.70;;
22070;SDS011;11200;51.488;6.668;2022-10-16T02:12:02;2.58;;;1.70;;
22070;SDS011;11200;51.488;6.668;2022-10-16T02:14:39;1.90;;;1.73;;
22070;SDS011;11200;51.488;6.668;2022-10-16T02:17:12;2.13;;;1.73;;
22070;SDS011;11200;51.488;6.668;2022-10-16T02:19:40;2.33;;;1.52;;
22070;SDS011;11200;51.488;6.668;2022-10-16T02:22:08;1.67;;;1.58;;
22070;SDS011;11200;51.488;6.668;2022-10-16T02:24:39;3.88;;;1.60;;
22070;SDS011;11200;51.488;6.668;2022-10-16T02:30:07;2.05;;;1.58;;
22070;SDS011;11200;51.488;6.668;2022-10-16T02:32:41;1.50;;;1.40;;
22070;SDS011;11200;51.488;6.668;2022-10-16T02:35:09;1.67;;;1.48;;
22070;SDS011;11200;51.488;6.668;2022-10-16T02:37:35;2.33;;;1.58;;
22070;SDS011;11200;51.488;6.668;2022-10-16T02:40:03;2.08;;;1.50;;
22070;SDS011;11200;51.488;6.668;2022-10-16T02:42:33;1.98;;;1.70;;
22070;SDS011;11200;51.488;6.668;2022-10-16T02:45:00;1.60;;;1.50;;
22070;SDS011;11200;51.488;6.668;2022-10-16T02:47:26;2.13;;;1.67;;
22070;SDS011;11200;51.488;6.668;2022-10-16T02:49:51;1.48;;;1.35;;
22070;SDS011;11200;51.488;6.668;2022-10-16T02:52:17;1.85;;;1.50;;
22070;SDS011;11200;51.488;6.668;2022-10-16T02:54:43;2.38;;;1.70;;
22070;SDS011;11200;51.488;6.668;2022-10-16T02:57:08;1.83;;;1.58;;
22070;SDS011;11200;51.488;6.668;2022-10-16T02:59:34;1.88;;;1.55;;
22070;SDS011;11200;51.488;6.668;2022-10-16T03:01:59;1.50;;;1.30;;
22070;SDS011;11200;51.488;6.668;2022-10-16T03:04:25;2.00;;;1.40;;
22070;SDS011;11200;51.488;6.668;2022-10-16T03:06:50;1.45;;;1.35;;
22070;SDS011;11200;51.488;6.668;2022-10-16T03:09:16;1.90;;;1.30;;
22070;SDS011;11200;51.488;6.668;2022-10-16T03:11:41;1.45;;;1.35;;
22070;SDS011;11200;51.488;6.668;2022-10-16T03:14:07;2.40;;;1.48;;
22070;SDS011;11200;51.488;6.668;2022-10-16T03:16:33;1.73;;;1.35;;
22070;SDS011;11200;51.488;6.668;2022-10-16T03:18:58;1.77;;;1.33;;
22070;SDS011;11200;51.488;6.668;2022-10-16T03:21:24;1.70;;;1.40;;
22070;SDS011;11200;51.488;6.668;2022-10-16T03:23:49;1.30;;;1.20;;
22070;SDS011;11200;51.488;6.668;2022-10-16T03:26:15;1.33;;;1.20;;
22070;SDS011;11200;51.488;6.668;2022-10-16T03:28:40;2.17;;;1.20;;
22070;SDS011;11200;51.488;6.668;2022-10-16T03:31:06;1.98;;;1.30;;
22070;SDS011;11200;51.488;6.668;2022-10-16T03:33:33;1.63;;;1.20;;
22070;SDS011;11200;51.488;6.668;2022-10-16T03:35:58;2.15;;;1.20;;
22070;SDS011;11200;51.488;6.668;2022-10-16T03:38:24;1.48;;;1.20;;
22070;SDS011;11200;51.488;6.668;2022-10-16T03:40:49;1.52;;;1.20;;
22070;SDS011;11200;51.488;6.668;2022-10-16T03:43:15;1.40;;;1.30;;
22070;SDS011;11200;51.488;6.668;2022-10-16T03:45:41;2.42;;;1.20;;
22070;SDS011;11200;51.488;6.668;2022-10-16T03:48:06;2.00;;;1.20;;
22070;SDS011;11200;51.488;6.668;2022-10-16T03:50:32;1.27;;;1.10;;
22070;SDS011;11200;51.488;6.668;2022-10-16T03:52:58;1.48;;;1.15;;
22070;SDS011;11200;51.488;6.668;2022-10-16T03:55:23;1.73;;;1.30;;
22070;SDS011;11200;51.488;6.668;2022-10-16T03:57:49;1.33;;;1.13;;
22070;SDS011;11200;51.488;6.668;2022-10-16T04:00:14;1.88;;;1.20;;
22070;SDS011;11200;51.488;6.668;2022-10-16T04:02:40;1.20;;;1.10;;
22070;SDS011;11200;51.488;6.668;2022-10-16T04:05:06;1.70;;;1.20;;
22070;SDS011;11200;51.488;6.668;2022-10-16T04:07:32;1.98;;;1.10;;
22070;SDS011;11200;51.488;6.668;2022-10-16T04:09:57;1.30;;;1.20;;
22070;SDS011;11200;51.488;6.668;2022-10-16T04:12:24;1.40;;;1.25;;
22070;SDS011;11200;51.488;6.668;2022-10-16T04:14:50;1.92;;;1.20;;
22070;SDS011;11200;51.488;6.668;2022-10-16T04:17:16;3.40;;;1.13;;
22070;SDS011;11200;51.488;6.668;2022-10-16T04:19:41;2.38;;;1.13;;
22070;SDS011;11200;51.488;6.668;2022-10-16T04:22:07;1.10;;;1.00;;
22070;SDS011;11200;51.488;6.668;2022-10-16T04:24:33;1.30;;;1.10;;
22070;SDS011;11200;51.488;6.668;2022-10-16T04:26:58;1.90;;;1.13;;
22070;SDS011;11200;51.488;6.668;2022-10-16T04:29:24;2.80;;;1.45;;
22070;SDS011;11200;51.488;6.668;2022-10-16T04:31:49;1.42;;;1.10;;
22070;SDS011;11200;51.488;6.668;2022-10-16T04:34:15;1.15;;;1.00;;
22070;SDS011;11200;51.488;6.668;2022-10-16T04:36:40;2.88;;;1.10;;
22070;SDS011;11200;51.488;6.668;2022-10-16T04:39:06;2.47;;;1.15;;
22070;SDS011;11200;51.488;6.668;2022-10-16T04:41:32;1.73;;;1.05;;
22070;SDS011;11200;51.488;6.668;2022-10-16T04:43:57;2.00;;;1.10;;
22070;SDS011;11200;51.488;6.668;2022-10-16T04:46:23;1.02;;;0.93;;
22070;SDS011;11200;51.488;6.668;2022-10-16T04:48:48;1.20;;;1.10;;
22070;SDS011;11200;51.488;6.668;2022-10-16T04:51:14;0.88;;;0.88;;
22070;SDS011;11200;51.488;6.668;2022-10-16T04:53:39;1.25;;;1.15;;
22070;SDS011;11200;51.488;6.668;2022-10-16T04:56:05;1.20;;;1.10;;
22070;SDS011;11200;51.488;6.668;2022-10-16T04:58:31;2.13;;;1.10;;
22070;SDS011;11200;51.488;6.668;2022-10-16T05:00:56;1.55;;;0.95;;
22070;SDS011;11200;51.488;6.668;2022-10-16T05:03:22;1.05;;;0.95;;
22070;SDS011;11200;51.488;6.668;2022-10-16T05:05:47;2.35;;;1.00;;
22070;SDS011;11200;51.488;6.668;2022-10-16T05:08:13;1.38;;;1.05;;
22070;SDS011;11200;51.488;6.668;2022-10-16T05:10:40;1.40;;;1.10;;
22070;SDS011;11200;51.488;6.668;2022-10-16T05:13:07;1.70;;;1.10;;
22070;SDS011;11200;51.488;6.668;2022-10-16T05:15:33;2.05;;;1.10;;
22070;SDS011;11200;51.488;6.668;2022-10-16T05:17:59;1.13;;;1.00;;
22070;SDS011;11200;51.488;6.668;2022-10-16T05:20:24;0.82;;;0.80;;
22070;SDS011;11200;51.488;6.668;2022-10-16T05:22:50;1.10;;;1.00;;
22070;SDS011;11200;51.488;6.668;2022-10-16T05:25:16;1.02;;;1.00;;
22070;SDS011;11200;51.488;6.668;2022-10-16T05:27:42;1.00;;;1.00;;
22070;SDS011;11200;51.488;6.668;2022-10-16T05:30:08;1.27;;;0.98;;
22070;SDS011;11200;51.488;6.668;2022-10-16T05:32:34;1.25;;;1.00;;
22070;SDS011;11200;51.488;6.668;2022-10-16T05:34:59;1.58;;;1.00;;
22070;SDS011;11200;51.488;6.668;2022-10-16T05:37:27;2.53;;;1.02;;
22070;SDS011;11200;51.488;6.668;2022-10-16T05:39:52;2.08;;;1.00;;
22070;SDS011;11200;51.488;6.668;2022-10-16T05:42:18;1.42;;;0.88;;
22070;SDS011;11200;51.488;6.668;2022-10-16T05:44:44;1.83;;;1.10;;
22070;SDS011;11200;51.488;6.668;2022-10-16T05:47:09;1.05;;;0.90;;
22070;SDS011;11200;51.488;6.668;2022-10-16T05:49:37;1.10;;;1.00;;
22070;SDS011;11200;51.488;6.668;2022-10-16T05:52:02;1.83;;;0.85;;
22070;SDS011;11200;51.488;6.668;2022-10-16T05:54:28;0.90;;;0.80;;
22070;SDS011;11200;51.488;6.668;2022-10-16T05:56:54;1.42;;;0.90;;
22070;SDS011;11200;51.488;6.668;2022-10-16T05:59:19;0.90;;;0.88;;
22070;SDS011;11200;51.488;6.668;2022-10-16T06:01:45;0.90;;;0.82;;
22070;SDS011;11200;51.488;6.668;2022-10-16T06:04:11;0.90;;;0.85;;
22070;SDS011;11200;51.488;6.668;2022-10-16T06:06:38;1.10;;;0.95;;
22070;SDS011;11200;51.488;6.668;2022-10-16T06:09:03;1.10;;;1.00;;
22070;SDS011;11200;51.488;6.668;2022-10-16T06:11:30;2.05;;;1.13;;
22070;SDS011;11200;51.488;6.668;2022-10-16T06:13:58;2.05;;;1.00;;
22070;SDS011;11200;51.488;6.668;2022-10-16T06:16:27;2.55;;;0.90;;
22070;SDS011;11200;51.488;6.668;2022-10-16T06:18:54;1.30;;;0.90;;
22070;SDS011;11200;51.488;6.668;2022-10-16T06:21:21;2.08;;;0.80;;
22070;SDS011;11200;51.488;6.668;2022-10-16T06:23:50;0.82;;;0.82;;
22070;SDS011;11200;51.488;6.668;2022-10-16T06:26:17;1.27;;;0.90;;
22070;SDS011;11200;51.488;6.668;2022-10-16T06:28:45;1.55;;;1.13;;
22070;SDS011;11200;51.488;6.668;2022-10-16T06:31:11;1.20;;;1.10;;
22070;SDS011;11200;51.488;6.668;2022-10-16T06:33:38;1.65;;;0.93;;
22070;SDS011;11200;51.488;6.668;2022-10-16T06:36:08;1.52;;;1.15;;
22070;SDS011;11200;51.488;6.668;2022-10-16T06:38:36;0.95;;;0.85;;
22070;SDS011;11200;51.488;6.668;2022-10-16T06:41:02;1.13;;;1.02;;
22070;SDS011;11200;51.488;6.668;2022-10-16T06:43:29;1.77;;;1.08;;
22070;SDS011;11200;51.488;6.668;2022-10-16T06:46:00;1.10;;;1.00;;
22070;SDS011;11200;51.488;6.668;2022-10-16T06:48:26;2.45;;;1.10;;
22070;SDS011;11200;51.488;6.668;2022-10-16T06:51:04;1.15;;;1.00;;
22070;SDS011;11200;51.488;6.668;2022-10-16T06:53:37;1.23;;;1.00;;
22070;SDS011;11200;51.488;6.668;2022-10-16T06:56:16;1.00;;;0.90;;
22070;SDS011;11200;51.488;6.668;2022-10-16T06:58:44;1.27;;;0.98;;
22070;SDS011;11200;51.488;6.668;2022-10-16T07:01:11;1.50;;;1.20;;
22070;SDS011;11200;51.488;6.668;2022-10-16T07:03:38;1.10;;;1.00;;
22070;SDS011;11200;51.488;6.668;2022-10-16T07:06:05;1.35;;;1.00;;
22070;SDS011;11200;51.488;6.668;2022-10-16T07:08:32;2.45;;;1.00;;
22070;SDS011;11200;51.488;6.668;2022-10-16T07:11:01;2.03;;;1.00;;
22070;SDS011;11200;51.488;6.668;2022-10-16T07:13:35;1.02;;;0.93;;
22070;SDS011;11200;51.488;6.668;2022-10-16T07:16:09;2.25;;;1.10;;
22070;SDS011;11200;51.488;6.668;2022-10-16T07:18:39;0.88;;;0.80;;
22070;SDS011;11200;51.488;6.668;2022-10-16T07:21:08;1.30;;;0.90;;
22070;SDS011;11200;51.488;6.668;2022-10-16T07:23:35;1.65;;;1.00;;
22070;SDS011;11200;51.488;6.668;2022-10-16T07:26:02;1.30;;;0.93;;
22070;SDS011;11200;51.488;6.668;2022-10-16T07:28:28;1.38;;;1.10;;
22070;SDS011;11200;51.488;6.668;2022-10-16T07:30:54;1.10;;;1.00;;
22070;SDS011;11200;51.488;6.668;2022-10-16T07:33:20;1.48;;;1.08;;
22070;SDS011;11200;51.488;6.668;2022-10-16T07:35:48;1.17;;;1.05;;
22070;SDS011;11200;51.488;6.668;2022-10-16T07:38:14;1.67;;;1.17;;
22070;SDS011;11200;51.488;6.668;2022-10-16T07:40:40;1.83;;;1.10;;
22070;SDS011;11200;51.488;6.668;2022-10-16T07:43:06;1.25;;;1.15;;
22070;SDS011;11200;51.488;6.668;2022-10-16T07:45:31;1.55;;;1.13;;
22070;SDS011;11200;51.488;6.668;2022-10-16T07:47:57;1.20;;;1.10;;
22070;SDS011;11200;51.488;6.668;2022-10-16T07:50:22;1.20;;;1.10;;
22070;SDS011;11200;51.488;6.668;2022-10-16T07:52:48;1.55;;;1.13;;
22070;SDS011;11200;51.488;6.668;2022-10-16T07:55:13;1.38;;;1.17;;
22070;SDS011;11200;51.488;6.668;2022-10-16T07:57:39;2.33;;;1.35;;
22070;SDS011;11200;51.488;6.668;2022-10-16T08:00:05;1.10;;;1.00;;
22070;SDS011;11200;51.488;6.668;2022-10-16T08:02:31;1.42;;;1.20;;
22070;SDS011;11200;51.488;6.668;2022-10-16T08:05:06;2.22;;;1.35;;
22070;SDS011;11200;51.488;6.668;2022-10-16T08:07:32;1.38;;;1.13;;
22070;SDS011;11200;51.488;6.668;2022-10-16T08:09:57;1.80;;;1.10;;
22070;SDS011;11200;51.488;6.668;2022-10-16T08:12:23;1.38;;;1.27;;
22070;SDS011;11200;51.488;6.668;2022-10-16T08:14:50;2.05;;;1.30;;
22070;SDS011;11200;51.488;6.668;2022-10-16T08:17:15;2.35;;;1.50;;
22070;SDS011;11200;51.488;6.668;2022-10-16T08:19:45;1.30;;;1.20;;
22070;SDS011;11200;51.488;6.668;2022-10-16T08:22:12;1.42;;;1.30;;
22070;SDS011;11200;51.488;6.668;2022-10-16T08:24:38;2.17;;;1.45;;
22070;SDS011;11200;51.488;6.668;2022-10-16T08:27:04;1.55;;;1.15;;
22070;SDS011;11200;51.488;6.668;2022-10-16T08:29:30;2.50;;;1.42;;
22070;SDS011;11200;51.488;6.668;2022-10-16T08:31:55;2.83;;;1.38;;
22070;SDS011;11200;51.488;6.668;2022-10-16T08:34:21;1.45;;;1.30;;
22070;SDS011;11200;51.488;6.668;2022-10-16T08:36:46;1.88;;;1.40;;
22070;SDS011;11200;51.488;6.668;2022-10-16T08:39:12;1.88;;;1.30;;
22070;SDS011;11200;51.488;6.668;2022-10-16T08:50:43;2.25;;;1.23;;
22070;SDS011;11200;51.488;6.668;2022-10-16T08:53:23;1.83;;;1.05;;
22070;SDS011;11200;51.488;6.668;2022-10-16T08:55:54;1.80;;;1.05;;
22070;SDS011;11200;51.488;6.668;2022-10-16T08:58:22;1.40;;;1.20;;
22070;SDS011;11200;51.488;6.668;2022-10-16T09:00:56;1.58;;;1.17;;
22070;SDS011;11200;51.488;6.668;2022-10-16T09:11:56;1.02;;;0.90;;
22070;SDS011;11200;51.488;6.668;2022-10-16T09:14:43;1.85;;;1.08;;
22070;SDS011;11200;51.488;6.668;2022-10-16T09:20:11;1.58;;;1.10;;
22070;SDS011;11200;51.488;6.668;2022-10-16T09:25:29;1.55;;;1.08;;
22070;SDS011;11200;51.488;6.668;2022-10-16T09:27:56;1.90;;;1.00;;
22070;SDS011;11200;51.488;6.668;2022-10-16T09:30:21;1.38;;;1.10;;
22070;SDS011;11200;51.488;6.668;2022-10-16T09:32:50;1.52;;;1.20;;
22070;SDS011;11200;51.488;6.668;2022-10-16T09:35:22;2.60;;;1.17;;
22070;SDS011;11200;51.488;6.668;2022-10-16T09:38:00;1.88;;;1.20;;
22070;SDS011;11200;51.488;6.668;2022-10-16T09:40:26;2.72;;;1.10;;
22070;SDS011;11200;51.488;6.668;2022-10-16T09:43:00;1.60;;;1.20;;
22070;SDS011;11200;51.488;6.668;2022-10-16T09:45:31;2.05;;;1.05;;
22070;SDS011;11200;51.488;6.668;2022-10-16T09:48:01;3.83;;;1.10;;
22070;SDS011;11200;51.488;6.668;2022-10-16T09:50:40;1.85;;;1.08;;
22070;SDS011;11200;51.488;6.668;2022-10-16T09:53:15;1.83;;;1.20;;
22070;SDS011;11200;51.488;6.668;2022-10-16T09:55:50;1.48;;;1.00;;
22070;SDS011;11200;51.488;6.668;2022-10-16T09:58:23;2.20;;;1.00;;
22070;SDS011;11200;51.488;6.668;2022-10-16T10:00:52;1.83;;;0.90;;
22070;SDS011;11200;51.488;6.668;2022-10-16T10:03:35;2.20;;;1.08;;
22070;SDS011;11200;51.488;6.668;2022-10-16T10:06:15;2.25;;;1.05;;
22070;SDS011;11200;51.488;6.668;2022-10-16T10:08:52;3.10;;;1.10;;
22070;SDS011;11200;51.488;6.668;2022-10-16T10:16:44;2.05;;;1.13;;
22070;SDS011;11200;51.488;6.668;2022-10-16T10:19:54;1.40;;;0.77;;
22070;SDS011;11200;51.488;6.668;2022-10-16T10:22:13;1.67;;;0.95;;
22070;SDS011;11200;51.488;6.668;2022-10-16T10:41:12;2.05;;;1.00;;
22070;SDS011;11200;51.488;6.668;2022-10-16T10:44:03;1.65;;;0.80;;
22070;SDS011;11200;51.488;6.668;2022-10-16T10:46:34;2.22;;;1.00;;
22070;SDS011;11200;51.488;6.668;2022-10-16T10:55:06;1.10;;;0.70;;
22070;SDS011;11200;51.488;6.668;2022-10-16T10:57:51;1.00;;;0.80;;
22070;SDS011;11200;51.488;6.668;2022-10-16T11:06:18;1.90;;;0.93;;
22070;SDS011;11200;51.488;6.668;2022-10-16T11:08:58;1.23;;;0.80;;
22070;SDS011;11200;51.488;6.668;2022-10-16T11:14:40;1.20;;;1.00;;
22070;SDS011;11200;51.488;6.668;2022-10-16T11:17:19;2.08;;;1.00;;
22070;SDS011;11200;51.488;6.668;2022-10-16T11:19:57;1.73;;;0.80;;
22070;SDS011;11200;51.488;6.668;2022-10-16T11:27:43;1.30;;;0.75;;
22070;SDS011;11200;51.488;6.668;2022-10-16T11:30:20;0.95;;;0.85;;
22070;SDS011;11200;51.488;6.668;2022-10-16T11:32:52;1.85;;;0.90;;
22070;SDS011;11200;51.488;6.668;2022-10-16T11:35:32;1.42;;;0.90;;
22070;SDS011;11200;51.488;6.668;2022-10-16T11:41:13;1.13;;;0.70;;
22070;SDS011;11200;51.488;6.668;2022-10-16T11:44:09;1.85;;;0.80;;
22070;SDS011;11200;51.488;6.668;2022-10-16T11:46:50;1.33;;;0.93;;
22070;SDS011;11200;51.488;6.668;2022-10-16T11:49:29;2.00;;;0.82;;
22070;SDS011;11200;51.488;6.668;2022-10-16T11:52:20;0.98;;;0.77;;
22070;SDS011;11200;51.488;6.668;2022-10-16T11:57:39;1.02;;;0.60;;
22070;SDS011;11200;51.488;6.668;2022-10-16T12:00:21;0.70;;;0.65;;
22070;SDS011;11200;51.488;6.668;2022-10-16T12:08:52;2.38;;;1.00;;
22070;SDS011;11200;51.488;6.668;2022-10-16T12:17:00;1.35;;;0.90;;
22070;SDS011;11200;51.488;6.668;2022-10-16T12:19:56;1.00;;;0.80;;
22070;SDS011;11200;51.488;6.668;2022-10-16T12:22:24;2.03;;;0.80;;
22070;SDS011;11200;51.488;6.668;2022-10-16T12:24:54;0.90;;;0.70;;
22070;SDS011;11200;51.488;6.668;2022-10-16T12:27:23;1.38;;;0.70;;
22070;SDS011;11200;51.488;6.668;2022-10-16T12:29:55;1.10;;;0.73;;
22070;SDS011;11200;51.488;6.668;2022-10-16T12:32:30;2.45;;;1.00;;
22070;SDS011;11200;51.488;6.668;2022-10-16T12:34:57;1.23;;;0.80;;
22070;SDS011;11200;51.488;6.668;2022-10-16T12:37:24;1.33;;;0.80;;
22070;SDS011;11200;51.488;6.668;2022-10-16T12:39:53;0.70;;;0.70;;
22070;SDS011;11200;51.488;6.668;2022-10-16T12:42:21;1.38;;;0.88;;
22070;SDS011;11200;51.488;6.668;2022-10-16T12:48:25;1.35;;;0.90;;
22070;SDS011;11200;51.488;6.668;2022-10-16T12:50:51;0.70;;;0.70;;
22070;SDS011;11200;51.488;6.668;2022-10-16T12:53:37;1.17;;;0.80;;
22070;SDS011;11200;51.488;6.668;2022-10-16T12:56:20;2.40;;;0.95;;
22070;SDS011;11200;51.488;6.668;2022-10-16T13:02:21;1.40;;;0.88;;
22070;SDS011;11200;51.488;6.668;2022-10-16T13:07:48;2.33;;;0.88;;
22070;SDS011;11200;51.488;6.668;2022-10-16T13:13:47;1.90;;;0.90;;
22070;SDS011;11200;51.488;6.668;2022-10-16T13:26:54;2.10;;;0.98;;
22070;SDS011;11200;51.488;6.668;2022-10-16T13:29:33;1.35;;;0.80;;
22070;SDS011;11200;51.488;6.668;2022-10-16T13:32:07;1.10;;;0.75;;
22070;SDS011;11200;51.488;6.668;2022-10-16T13:34:47;0.98;;;0.75;;
22070;SDS011;11200;51.488;6.668;2022-10-16T13:37:22;1.02;;;0.80;;
22070;SDS011;11200;51.488;6.668;2022-10-16T13:39:49;1.25;;;0.80;;
22070;SDS011;11200;51.488;6.668;2022-10-16T13:42:23;1.33;;;0.85;;
22070;SDS011;11200;51.488;6.668;2022-10-16T13:44:59;0.90;;;0.70;;
22070;SDS011;11200;51.488;6.668;2022-10-16T13:47:26;2.42;;;0.70;;
22070;SDS011;11200;51.488;6.668;2022-10-16T13:52:52;1.20;;;0.88;;
22070;SDS011;11200;51.488;6.668;2022-10-16T13:55:40;1.55;;;0.88;;
22070;SDS011;11200;51.488;6.668;2022-10-16T13:58:12;1.80;;;0.88;;
22070;SDS011;11200;51.488;6.668;2022-10-16T14:00:39;1.80;;;0.80;;
22070;SDS011;11200;51.488;6.668;2022-10-16T14:03:18;1.00;;;0.70;;
22070;SDS011;11200;51.488;6.668;2022-10-16T14:05:52;1.35;;;0.80;;
22070;SDS011;11200;51.488;6.668;2022-10-16T14:08:19;1.10;;;0.77;;
22070;SDS011;11200;51.488;6.668;2022-10-16T14:10:49;2.25;;;0.90;;
22070;SDS011;11200;51.488;6.668;2022-10-16T14:13:19;1.15;;;0.70;;
22070;SDS011;11200;51.488;6.668;2022-10-16T14:15:51;1.50;;;0.90;;
22070;SDS011;11200;51.488;6.668;2022-10-16T14:18:23;1.27;;;0.80;;
22070;SDS011;11200;51.488;6.668;2022-10-16T14:20:51;1.85;;;0.82;;
22070;SDS011;11200;51.488;6.668;2022-10-16T14:23:22;0.98;;;0.75;;
22070;SDS011;11200;51.488;6.668;2022-10-16T14:25:52;1.50;;;0.95;;
22070;SDS011;11200;51.488;6.668;2022-10-16T14:28:22;1.67;;;0.90;;
22070;SDS011;11200;51.488;6.668;2022-10-16T14:30:58;2.28;;;1.02;;
22070;SDS011;11200;51.488;6.668;2022-10-16T14:33:32;0.75;;;0.65;;
22070;SDS011;11200;51.488;6.668;2022-10-16T14:38:40;1.55;;;0.73;;
22070;SDS011;11200;51.488;6.668;2022-10-16T14:41:07;1.30;;;0.70;;
22070;SDS011;11200;51.488;6.668;2022-10-16T14:43:34;1.08;;;0.90;;
22070;SDS011;11200;51.488;6.668;2022-10-16T14:46:07;1.42;;;0.80;;
22070;SDS011;11200;51.488;6.668;2022-10-16T14:48:41;1.45;;;0.88;;
22070;SDS011;11200;51.488;6.668;2022-10-16T14:51:17;2.17;;;0.90;;
22070;SDS011;11200;51.488;6.668;2022-10-16T14:53:44;0.95;;;0.80;;
22070;SDS011;11200;51.488;6.668;2022-10-16T14:56:18;0.70;;;0.70;;
22070;SDS011;11200;51.488;6.668;2022-10-16T14:58:52;1.40;;;0.93;;
22070;SDS011;11200;51.488;6.668;2022-10-16T15:01:18;1.00;;;0.90;;
22070;SDS011;11200;51.488;6.668;2022-10-16T15:03:44;1.10;;;0.90;;
22070;SDS011;11200;51.488;6.668;2022-10-16T15:06:14;1.05;;;0.70;;
22070;SDS011;11200;51.488;6.668;2022-10-16T15:08:43;1.25;;;0.93;;
22070;SDS011;11200;51.488;6.668;2022-10-16T15:11:10;1.00;;;0.80;;
22070;SDS011;11200;51.488;6.668;2022-10-16T15:13:40;1.90;;;1.00;;
22070;SDS011;11200;51.488;6.668;2022-10-16T15:16:13;1.15;;;0.90;;
22070;SDS011;11200;51.488;6.668;2022-10-16T15:18:40;0.80;;;0.70;;
22070;SDS011;11200;51.488;6.668;2022-10-16T15:21:06;1.58;;;0.95;;
22070;SDS011;11200;51.488;6.668;2022-10-16T15:23:35;1.33;;;0.80;;
22070;SDS011;11200;51.488;6.668;2022-10-16T15:26:18;1.17;;;0.80;;
22070;SDS011;11200;51.488;6.668;2022-10-16T15:28:44;2.05;;;1.15;;
22070;SDS011;11200;51.488;6.668;2022-10-16T15:31:09;1.30;;;1.05;;
22070;SDS011;11200;51.488;6.668;2022-10-16T15:33:35;1.60;;;0.90;;
22070;SDS011;11200;51.488;6.668;2022-10-16T15:36:00;2.13;;;1.00;;
22070;SDS011;11200;51.488;6.668;2022-10-16T15:38:27;1.17;;;0.90;;
22070;SDS011;11200;51.488;6.668;2022-10-16T15:40:53;2.38;;;1.23;;
22070;SDS011;11200;51.488;6.668;2022-10-16T15:43:19;2.53;;;1.00;;
22070;SDS011;11200;51.488;6.668;2022-10-16T15:46:01;1.55;;;1.02;;
22070;SDS011;11200;51.488;6.668;2022-10-16T15:48:29;3.13;;;0.95;;
22070;SDS011;11200;51.488;6.668;2022-10-16T15:50:56;0.98;;;0.88;;
22070;SDS011;11200;51.488;6.668;2022-10-16T15:53:24;1.80;;;1.00;;
22070;SDS011;11200;51.488;6.668;2022-10-16T15:55:50;1.85;;;1.10;;
22070;SDS011;11200;51.488;6.668;2022-10-16T15:58:16;1.65;;;1.08;;
22070;SDS011;11200;51.488;6.668;2022-10-16T16:00:42;1.85;;;1.30;;
22070;SDS011;11200;51.488;6.668;2022-10-16T16:03:07;1.38;;;0.95;;
22070;SDS011;11200;51.488;6.668;2022-10-16T16:05:33;1.08;;;0.98;;
22070;SDS011;11200;51.488;6.668;2022-10-16T16:08:03;1.65;;;1.10;;
22070;SDS011;11200;51.488;6.668;2022-10-16T16:10:29;1.77;;;1.08;;
22070;SDS011;11200;51.488;6.668;2022-10-16T16:12:54;1.38;;;1.10;;
22070;SDS011;11200;51.488;6.668;2022-10-16T16:15:20;1.00;;;0.80;;
22070;SDS011;11200;51.488;6.668;2022-10-16T16:17:46;1.55;;;1.10;;
22070;SDS011;11200;51.488;6.668;2022-10-16T16:20:12;1.42;;;1.00;;
22070;SDS011;11200;51.488;6.668;2022-10-16T16:22:38;1.67;;;1.10;;
22070;SDS011;11200;51.488;6.668;2022-10-16T16:25:04;1.65;;;1.30;;
22070;SDS011;11200;51.488;6.668;2022-10-16T16:27:30;1.25;;;1.00;;
22070;SDS011;11200;51.488;6.668;2022-10-16T16:29:58;1.23;;;1.13;;
22070;SDS011;11200;51.488;6.668;2022-10-16T16:32:28;1.30;;;1.10;;
22070;SDS011;11200;51.488;6.668;2022-10-16T16:34:53;1.80;;;1.20;;
22070;SDS011;11200;51.488;6.668;2022-10-16T16:37:22;1.67;;;1.30;;
22070;SDS011;11200;51.488;6.668;2022-10-16T16:39:47;1.98;;;1.27;;
22070;SDS011;11200;51.488;6.668;2022-10-16T16:42:16;2.28;;;1.50;;
22070;SDS011;11200;51.488;6.668;2022-10-16T16:44:41;2.55;;;1.70;;
22070;SDS011;11200;51.488;6.668;2022-10-16T16:47:07;2.40;;;1.60;;
22070;SDS011;11200;51.488;6.668;2022-10-16T16:49:34;2.63;;;1.52;;
22070;SDS011;11200;51.488;6.668;2022-10-16T16:52:00;2.08;;;1.67;;
22070;SDS011;11200;51.488;6.668;2022-10-16T16:54:25;1.67;;;1.35;;
22070;SDS011;11200;51.488;6.668;2022-10-16T16:56:51;2.75;;;1.50;;
22070;SDS011;11200;51.488;6.668;2022-10-16T16:59:21;2.67;;;1.80;;
22070;SDS011;11200;51.488;6.668;2022-10-16T17:01:47;2.22;;;1.52;;
22070;SDS011;11200;51.488;6.668;2022-10-16T17:04:13;1.85;;;1.63;;